Garfield, New Jersey
Current Conditions -  °F | °C
As of 1:51 PM on Tuesday 21 Oct 2014 (Local Time) from KTEB Reporting Station
Light Rain Light Rain  
Wind Chill: 65°   Ceiling: 4000
Heat Index: 65°   Visibility: 10mi
Dew Point: 48°   Wind: 0mph
Humidity: 54%   Direction: NA
Pressure: 29.83"   Gusts: NA
Location:  40.88°N, 74.11°W
Report Text: KTEB 211751Z 00000KT 10SM -RA OVC040 18/09 A2983 RMK AO2 RAB31 SLP100 P0000 60000 T01830089 10206 20106 58018
Loading
Personal Weather Stations






























Interactive Weather Map
Tropical Storm Tracking
New forecast layout! Learn more

10-Day Weather Forecast

Advertisements
Track Severe Weather on mobile